LNR15SA UBBB-ENGM
Flight info
| Callsign | LNR15SA |
|---|---|
| Flight time | N/A |
| Altitude | 34000 |
| Route | RASAM N199 LUSAL M11 REBLO UM11 CRM UL746 OLDUD/N0461F360 UL746 ODERO DCT KARIL DCT LENOV DCT PENOR DCT KSD Z259 ESEBA |
| Aircraft | A320/M-SDE3FGHIRWY/LB1 |
Departure
| Time | 2025-09-09 07:33 |
|---|---|
| Airport | Heydar Aliyev International Airport (UBBB) |
Arrival
| Time | N/A |
|---|---|
| Airport | Oslo-Gardermoen International Airport (ENGM) |
| Time | Latitude | Longitude | Altitude | Speed | Heading |
|---|---|---|---|---|---|
| 2025-09-09 07:16 | 40.46627 | 50.05093 | 16 ft | 0 kts | 116° |
| 2025-09-09 07:25 | 40.46636 | 50.05069 | 14 ft | 2 kts | 116° |
| 2025-09-09 07:25 | 40.46651 | 50.05030 | 18 ft | 2 kts | 116° |
| 2025-09-09 07:26 | 40.46674 | 50.05002 | 16 ft | 2 kts | 169° |
| 2025-09-09 07:27 | 40.46591 | 50.04932 | 14 ft | 15 kts | 212° |
| 2025-09-09 07:28 | 40.46549 | 50.04728 | 14 ft | 11 kts | 268° |
| 2025-09-09 07:28 | 40.46547 | 50.04634 | 14 ft | 9 kts | 268° |
| 2025-09-09 07:29 | 40.46541 | 50.04221 | 14 ft | 17 kts | 283° |
| 2025-09-09 07:29 | 40.46736 | 50.04064 | 14 ft | 16 kts | 340° |
| 2025-09-09 07:30 | 40.46820 | 50.03942 | 14 ft | 0 kts | 246° |
| 2025-09-09 07:30 | 40.46806 | 50.03864 | 13 ft | 15 kts | 256° |
| 2025-09-09 07:31 | 40.46966 | 50.03712 | 12 ft | 36 kts | 346° |
| 2025-09-09 07:31 | 40.48251 | 50.03306 | 12 ft | 146 kts | 346° |
| 2025-09-09 07:32 | 40.50500 | 50.02603 | 810 ft | 170 kts | 347° |
| 2025-09-09 07:32 | 40.51659 | 50.02236 | 1401 ft | 172 kts | 348° |
| 2025-09-09 07:33 | 40.55596 | 50.01075 | 2249 ft | 223 kts | 348° |
| 2025-09-09 07:33 | 40.58905 | 50.00011 | 2850 ft | 265 kts | 346° |
| 2025-09-09 07:34 | 40.61713 | 49.96993 | 4147 ft | 275 kts | 288° |
| 2025-09-09 07:34 | 40.61944 | 49.92002 | 5648 ft | 276 kts | 268° |
| 2025-09-09 07:35 | 40.61900 | 49.86900 | 7075 ft | 281 kts | 268° |
| 2025-09-09 07:35 | 40.61859 | 49.81710 | 7944 ft | 284 kts | 268° |
| 2025-09-09 07:36 | 40.61824 | 49.76521 | 8004 ft | 283 kts | 268° |
| 2025-09-09 07:36 | 40.61806 | 49.73903 | 8436 ft | 287 kts | 268° |
| 2025-09-09 07:37 | 40.61720 | 49.63147 | 10385 ft | 321 kts | 268° |
| 2025-09-09 07:37 | 40.61693 | 49.60108 | 10512 ft | 341 kts | 268° |
| 2025-09-09 07:38 | 40.61633 | 49.53527 | 10794 ft | 375 kts | 268° |
| 2025-09-09 07:38 | 40.61567 | 49.46577 | 11753 ft | 383 kts | 268° |
| 2025-09-09 07:39 | 40.61490 | 49.39521 | 12838 ft | 388 kts | 268° |
| 2025-09-09 07:39 | 40.61404 | 49.32383 | 13912 ft | 392 kts | 268° |
| 2025-09-09 07:40 | 40.61320 | 49.25187 | 14871 ft | 394 kts | 268° |
| 2025-09-09 07:40 | 40.61169 | 49.14327 | 16305 ft | 398 kts | 268° |
| 2025-09-09 07:41 | 40.61101 | 49.10681 | 16752 ft | 399 kts | 267° |
| 2025-09-09 07:41 | 40.60953 | 49.03370 | 17646 ft | 401 kts | 267° |
| 2025-09-09 07:42 | 40.60803 | 48.96064 | 18473 ft | 403 kts | 267° |
| 2025-09-09 07:42 | 40.60652 | 48.88681 | 19185 ft | 405 kts | 267° |
| 2025-09-09 07:43 | 40.60498 | 48.81235 | 19874 ft | 409 kts | 267° |